Time;durP1;ratioP1;P1;durP2;ratioP2;P2;SDS_P1;SDS_P2;PMS_P1;PMS_P2;Temp;Humidity;BMP_temperature;BMP_pressure;BME280_temperature;BME280_humidity;BME280_pressure;Samples;Min_cycle;Max_cycle;Signal;HPM_P1;HPM_P2
2022/12/28 00:01:09;;;;;;;4.47;3.80;;;2.80;69.60;;;;;;4975902;28;46511;-83
2022/12/28 00:03:34;;;;;;;5.68;3.75;;;2.90;69.80;;;;;;4972842;28;45861;-82
2022/12/28 00:06:00;;;;;;;5.77;3.50;;;2.90;69.50;;;;;;4981059;28;46524;-82
2022/12/28 00:08:26;;;;;;;5.80;3.60;;;3.10;69.40;;;;;;4979750;28;46605;-81
2022/12/28 00:10:51;;;;;;;4.70;3.40;;;3.10;69.30;;;;;;4977798;28;46493;-82
2022/12/28 00:13:17;;;;;;;5.07;3.30;;;3.20;69.20;;;;;;4973788;28;45979;-81
2022/12/28 00:15:42;;;;;;;5.50;3.10;;;3.20;69.00;;;;;;4974609;28;46514;-82
2022/12/28 00:18:08;;;;;;;5.80;3.30;;;3.30;69.20;;;;;;4983121;28;48043;-83
2022/12/28 00:20:33;;;;;;;8.43;5.37;;;3.30;69.10;;;;;;4985456;28;46474;-82
2022/12/28 00:23:03;;;;;;;5.90;3.53;;;3.40;69.20;;;;;;4978275;28;46518;-83
2022/12/28 00:25:28;;;;;;;5.80;3.83;;;3.30;69.30;;;;;;4978916;28;46354;-82
2022/12/28 00:27:54;;;;;;;5.10;3.30;;;3.20;69.70;;;;;;4977369;28;46200;-82
2022/12/28 00:30:20;;;;;;;7.73;3.27;;;3.20;69.90;;;;;;4977658;28;46468;-84
2022/12/28 00:32:45;;;;;;;9.50;3.70;;;3.20;69.90;;;;;;4977164;28;46623;-83
2022/12/28 00:35:11;;;;;;;9.73;4.00;;;3.20;68.80;;;;;;4976840;28;46600;-84
2022/12/28 00:37:36;;;;;;;4.50;3.37;;;3.10;70.10;;;;;;4976356;28;46686;-80
2022/12/28 00:40:02;;;;;;;5.40;3.20;;;2.90;71.80;;;;;;4975332;28;46872;-81
2022/12/28 00:42:27;;;;;;;5.87;3.33;;;2.70;71.70;;;;;;4980524;28;46417;-81
2022/12/28 00:44:53;;;;;;;8.93;4.03;;;2.60;71.60;;;;;;4972869;28;46424;-79
2022/12/28 00:47:18;;;;;;;7.90;3.70;;;2.40;72.10;;;;;;4973845;28;46429;-83
2022/12/28 00:49:44;;;;;;;5.93;3.13;;;2.30;72.40;;;;;;4973969;28;46314;-83
2022/12/28 00:52:09;;;;;;;10.27;3.47;;;2.20;72.60;;;;;;4972588;28;46445;-83
2022/12/28 00:54:35;;;;;;;12.20;3.30;;;2.20;72.70;;;;;;4975440;28;46880;-84
2022/12/28 00:57:00;;;;;;;5.67;3.60;;;2.10;72.50;;;;;;4980204;28;46576;-82
2022/12/28 00:59:26;;;;;;;6.53;3.37;;;2.20;72.30;;;;;;4995376;28;45940;-82
2022/12/28 01:01:51;;;;;;;5.57;3.23;;;2.40;71.70;;;;;;4999833;28;46444;-84
2022/12/28 01:04:17;;;;;;;3.63;2.70;;;2.60;71.70;;;;;;4980945;28;45961;-83
2022/12/28 01:06:43;;;;;;;5.20;3.27;;;2.70;71.70;;;;;;4974283;28;46412;-80
2022/12/28 01:09:08;;;;;;;7.90;3.40;;;2.80;71.70;;;;;;4974698;28;46373;-79
2022/12/28 01:11:34;;;;;;;6.07;3.23;;;2.80;71.20;;;;;;4975376;28;46107;-82
2022/12/28 01:14:01;;;;;;;4.73;3.07;;;3.00;71.00;;;;;;4981791;28;46430;-85
2022/12/28 01:16:33;;;;;;;4.18;3.20;;;3.00;70.60;;;;;;4976446;28;46411;-86
2022/12/28 01:19:00;;;;;;;8.63;3.38;;;3.10;70.50;;;;;;4975289;28;46500;-86
2022/12/28 01:21:29;;;;;;;4.82;3.30;;;3.00;70.50;;;;;;4980895;28;45895;-85
2022/12/28 01:23:56;;;;;;;5.18;3.05;;;3.00;70.80;;;;;;4973206;28;46628;-83
2022/12/28 01:26:23;;;;;;;5.88;3.03;;;2.90;71.10;;;;;;4975697;28;46392;-82
2022/12/28 01:28:48;;;;;;;8.25;3.45;;;2.80;71.80;;;;;;4973485;28;46452;-82
2022/12/28 01:31:17;;;;;;;6.37;2.87;;;2.70;71.70;;;;;;4970914;28;46329;-83
2022/12/28 01:33:43;;;;;;;4.22;2.47;;;2.60;71.60;;;;;;4972880;28;46341;-81
2022/12/28 01:36:20;;;;;;;5.50;3.40;;;2.60;71.60;;;;;;4972461;28;46687;-84
2022/12/28 01:38:47;;;;;;;4.65;3.15;;;2.50;71.60;;;;;;4972425;28;46394;-81
2022/12/28 01:41:17;;;;;;;6.40;2.92;;;2.50;72.10;;;;;;4979803;28;46528;-80
2022/12/28 01:43:51;;;;;;;5.15;2.88;;;2.40;72.30;;;;;;4974642;28;46418;-80
2022/12/28 01:46:22;;;;;;;6.15;3.08;;;2.40;72.40;;;;;;4973291;28;45953;-82
2022/12/28 01:49:14;;;;;;;3.60;2.45;;;2.30;72.40;;;;;;4974109;28;46061;-82
2022/12/28 01:51:49;;;;;;;5.20;2.70;;;2.30;72.60;;;;;;4973606;28;46538;-82
2022/12/28 01:54:15;;;;;;;12.43;2.47;;;2.30;72.70;;;;;;4974150;28;46393;-81
2022/12/28 01:56:42;;;;;;;4.43;2.85;;;2.20;72.70;;;;;;4974985;28;46703;-81
2022/12/28 01:59:09;;;;;;;5.88;3.05;;;2.20;72.60;;;;;;4972094;28;46390;-82
2022/12/28 02:01:35;;;;;;;8.63;3.38;;;2.20;72.60;;;;;;4974197;28;46487;-81
2022/12/28 02:04:01;;;;;;;4.93;2.30;;;2.20;72.70;;;;;;4971949;28;46473;-81
2022/12/28 02:06:27;;;;;;;3.57;2.50;;;2.20;72.70;;;;;;4971253;28;48591;-82
2022/12/28 02:08:57;;;;;;;6.85;3.17;;;2.20;72.60;;;;;;4972086;28;46395;-81
2022/12/28 02:11:23;;;;;;;4.07;2.40;;;2.20;72.40;;;;;;4970095;28;46452;-82
2022/12/28 02:13:51;;;;;;;6.20;3.10;;;2.30;72.30;;;;;;4970662;28;46495;-81
2022/12/28 02:16:17;;;;;;;4.15;2.50;;;2.30;72.00;;;;;;4971791;28;47327;-82
2022/12/28 02:18:44;;;;;;;3.70;2.50;;;2.40;71.90;;;;;;4968551;28;46700;-82
2022/12/28 02:21:47;;;;;;;5.22;2.90;;;2.40;72.10;;;;;;4971219;28;46405;-81
2022/12/28 02:24:47;;;;;;;3.88;2.50;;;2.40;71.50;;;;;;4972852;28;47336;-80
2022/12/28 02:27:28;;;;;;;4.38;2.60;;;2.40;71.40;;;;;;4968709;28;46732;-82
2022/12/28 02:30:13;;;;;;;4.82;2.85;;;2.50;71.50;;;;;;4985526;28;46939;-81
2022/12/28 02:33:00;;;;;;;4.53;2.53;;;2.50;71.50;;;;;;4971556;28;46742;-83
2022/12/28 02:35:42;;;;;;;6.50;2.25;;;2.50;71.50;;;;;;4972438;28;46520;-83
2022/12/28 02:38:14;;;;;;;2.60;2.10;;;2.60;71.60;;;;;;4973558;28;47213;-83
2022/12/28 02:40:48;;;;;;;3.65;2.25;;;2.70;71.70;;;;;;4970864;28;46419;-83
2022/12/28 02:43:14;;;;;;;4.80;2.70;;;2.70;71.70;;;;;;4971391;28;46465;-83
2022/12/28 02:51:50;;;;;;;3.63;2.28;;;2.70;71.70;;;;;;4974937;28;46452;-83
2022/12/28 02:57:37;;;;;;;3.53;2.00;;;2.70;71.70;;;;;;4971693;28;46601;-82
2022/12/28 03:00:14;;;;;;;4.10;2.00;;;2.70;71.70;;;;;;4980223;28;49427;-84
2022/12/28 03:02:55;;;;;;;3.63;2.00;;;2.70;71.70;;;;;;4971065;28;46727;-82
2022/12/28 03:08:36;;;;;;;2.50;1.60;;;2.60;71.60;;;;;;4971345;28;46524;-85
2022/12/28 03:11:09;;;;;;;2.42;1.40;;;2.70;71.70;;;;;;4974980;28;46024;-85
2022/12/28 03:14:06;;;;;;;3.35;1.98;;;2.70;71.70;;;;;;4969597;28;46275;-82
2022/12/28 03:25:41;;;;;;;3.10;1.63;;;2.70;71.70;;;;;;4972510;28;46428;-83
2022/12/28 03:33:17;;;;;;;2.47;1.83;;;3.00;71.90;;;;;;4977155;28;46250;-80
2022/12/28 03:35:43;;;;;;;2.33;1.80;;;3.20;72.10;;;;;;4973733;28;46337;-81
2022/12/28 03:38:11;;;;;;;2.60;1.80;;;3.00;71.90;;;;;;4972698;28;46873;-83
2022/12/28 03:40:47;;;;;;;6.78;1.90;;;3.10;72.00;;;;;;4974604;28;46573;-82
2022/12/28 03:43:42;;;;;;;2.28;1.92;;;3.10;72.00;;;;;;4975012;28;47974;-82
2022/12/28 03:46:10;;;;;;;3.72;1.85;;;3.10;72.00;;;;;;4971890;28;46479;-83
2022/12/28 03:48:36;;;;;;;4.53;1.95;;;3.20;71.90;;;;;;4970955;28;46481;-82
2022/12/28 03:51:02;;;;;;;3.42;2.28;;;3.20;71.50;;;;;;4979442;28;47234;-82
2022/12/28 03:53:42;;;;;;;2.80;1.90;;;3.30;71.40;;;;;;4973439;28;46463;-83
2022/12/28 03:56:22;;;;;;;4.93;2.15;;;3.30;71.10;;;;;;4975303;28;46460;-82
2022/12/28 03:58:49;;;;;;;2.83;1.40;;;3.30;70.90;;;;;;4970796;28;46401;-81
2022/12/28 04:01:15;;;;;;;5.50;2.10;;;3.40;71.90;;;;;;4975626;28;46663;-82
2022/12/28 04:03:42;;;;;;;2.75;1.80;;;3.40;70.80;;;;;;4973392;28;46865;-81
2022/12/28 04:06:12;;;;;;;2.85;1.90;;;3.40;71.50;;;;;;4972251;28;46142;-83
2022/12/28 04:08:37;;;;;;;2.42;1.60;;;3.30;71.50;;;;;;4974715;28;46433;-82
2022/12/28 04:11:03;;;;;;;3.87;2.20;;;3.30;71.70;;;;;;4970981;28;46079;-82
2022/12/28 04:13:32;;;;;;;3.53;2.03;;;3.30;72.10;;;;;;4972575;28;47591;-82
2022/12/28 04:16:00;;;;;;;2.88;2.05;;;3.20;72.10;;;;;;4973397;28;46779;-82
2022/12/28 04:18:25;;;;;;;5.50;2.00;;;3.20;72.10;;;;;;4970974;28;46414;-80
2022/12/28 04:20:51;;;;;;;3.30;1.87;;;3.20;71.70;;;;;;4971509;28;46425;-82
2022/12/28 04:23:17;;;;;;;3.03;1.60;;;3.30;71.70;;;;;;4970563;28;46313;-82
2022/12/28 04:25:42;;;;;;;3.47;1.90;;;3.30;71.50;;;;;;4969325;28;46467;-82
2022/12/28 04:28:08;;;;;;;3.60;2.00;;;3.30;71.50;;;;;;4972349;28;46253;-83
2022/12/28 04:30:33;;;;;;;3.37;1.97;;;3.30;71.50;;;;;;4974236;28;46390;-84
2022/12/28 04:32:59;;;;;;;3.03;1.50;;;3.30;71.30;;;;;;4990656;28;46588;-81
2022/12/28 04:35:24;;;;;;;8.33;2.00;;;3.30;71.40;;;;;;4989095;28;45968;-81
2022/12/28 04:37:50;;;;;;;2.10;1.40;;;3.30;71.60;;;;;;4977173;28;46747;-82
2022/12/28 04:40:15;;;;;;;2.73;1.63;;;3.30;71.40;;;;;;4975295;28;46398;-83
2022/12/28 04:42:41;;;;;;;3.20;1.70;;;3.30;71.40;;;;;;4975814;28;46621;-84
2022/12/28 04:45:07;;;;;;;2.50;1.50;;;3.30;71.50;;;;;;4974129;28;46447;-83
2022/12/28 04:47:33;;;;;;;5.53;1.60;;;3.40;71.30;;;;;;4976547;28;46659;-80
2022/12/28 04:49:58;;;;;;;2.30;1.40;;;3.50;71.40;;;;;;4976146;28;46382;-83
2022/12/28 04:52:24;;;;;;;3.33;1.70;;;3.50;71.30;;;;;;4976085;28;47120;-83
2022/12/28 04:54:49;;;;;;;2.37;1.27;;;3.50;71.10;;;;;;4975284;28;46373;-84
2022/12/28 04:57:15;;;;;;;2.00;1.50;;;3.60;71.10;;;;;;4977361;28;46339;-84
2022/12/28 04:59:40;;;;;;;2.17;1.40;;;3.60;70.90;;;;;;4976485;28;46561;-82
2022/12/28 05:02:06;;;;;;;1.90;1.27;;;3.70;70.90;;;;;;4973411;28;48660;-82
2022/12/28 05:04:32;;;;;;;2.55;1.45;;;3.70;70.70;;;;;;4974165;28;46461;-82
2022/12/28 05:06:57;;;;;;;1.60;1.30;;;3.80;70.50;;;;;;4977160;28;46490;-84
2022/12/28 05:09:23;;;;;;;2.67;1.70;;;3.90;70.50;;;;;;4977269;28;46664;-82
2022/12/28 05:11:50;;;;;;;1.80;1.30;;;3.90;70.50;;;;;;4974556;28;45990;-82
2022/12/28 05:14:15;;;;;;;4.15;1.55;;;3.90;70.40;;;;;;4978901;28;46461;-82
2022/12/28 05:16:41;;;;;;;2.83;1.40;;;4.00;70.40;;;;;;4973660;28;46412;-82
2022/12/28 05:19:07;;;;;;;2.13;1.40;;;4.10;70.10;;;;;;4977171;28;46516;-81
2022/12/28 05:21:32;;;;;;;2.70;1.50;;;4.10;70.00;;;;;;4979252;28;48491;-82
2022/12/28 05:23:58;;;;;;;2.83;1.40;;;4.10;69.90;;;;;;4977368;28;46642;-81
2022/12/28 05:26:27;;;;;;;1.90;1.43;;;4.10;70.40;;;;;;4973145;28;46025;-81
2022/12/28 05:28:54;;;;;;;3.47;1.20;;;4.10;70.40;;;;;;4974356;28;46626;-81
2022/12/28 05:31:21;;;;;;;1.60;1.30;;;4.20;70.20;;;;;;4987313;28;48569;-81
2022/12/28 05:33:47;;;;;;;10.80;1.65;;;4.20;70.10;;;;;;4974228;28;47278;-81
2022/12/28 05:36:16;;;;;;;1.75;1.20;;;4.20;70.10;;;;;;4975137;28;47005;-82
2022/12/28 05:38:42;;;;;;;1.73;1.37;;;4.20;70.10;;;;;;4972549;28;46619;-79
2022/12/28 05:41:12;;;;;;;4.00;2.77;;;4.20;70.00;;;;;;4974348;28;46451;-81
2022/12/28 05:43:38;;;;;;;5.72;3.90;;;4.30;70.00;;;;;;4970430;28;46906;-82
2022/12/28 05:46:06;;;;;;;5.32;1.80;;;4.30;70.10;;;;;;4969543;28;45937;-82
2022/12/28 05:48:33;;;;;;;3.00;1.73;;;4.30;70.00;;;;;;4974174;28;46323;-81
2022/12/28 05:51:04;;;;;;;2.50;1.70;;;4.30;70.20;;;;;;4980386;28;49011;-83
2022/12/28 05:53:31;;;;;;;4.13;1.90;;;4.30;70.30;;;;;;4973467;28;45977;-82
2022/12/28 05:56:05;;;;;;;5.15;2.85;;;4.30;70.30;;;;;;4973854;28;46852;-82
2022/12/28 05:58:31;;;;;;;7.27;3.70;;;4.30;70.30;;;;;;4973944;28;46434;-82
2022/12/28 06:01:12;;;;;;;5.50;4.20;;;4.30;70.30;;;;;;4972404;28;48611;-80
2022/12/28 06:03:38;;;;;;;2.03;1.73;;;4.40;70.30;;;;;;4971156;28;47086;-83
2022/12/28 06:06:09;;;;;;;2.20;1.50;;;4.40;70.20;;;;;;4970823;28;46281;-82
2022/12/28 06:08:36;;;;;;;3.33;1.90;;;4.40;70.10;;;;;;4975493;28;46303;-81
2022/12/28 06:11:03;;;;;;;2.90;1.40;;;4.40;70.00;;;;;;4972889;28;46429;-80
2022/12/28 06:13:30;;;;;;;2.47;1.55;;;4.50;70.00;;;;;;4972757;28;46461;-82
2022/12/28 06:15:55;;;;;;;2.35;1.55;;;4.40;70.00;;;;;;4973177;28;46324;-82
2022/12/28 06:18:21;;;;;;;4.90;2.07;;;4.50;70.00;;;;;;4973284;28;46413;-83
2022/12/28 06:20:47;;;;;;;7.03;2.20;;;4.50;70.00;;;;;;4972914;28;47610;-83
2022/12/28 06:23:13;;;;;;;5.43;2.73;;;4.50;69.90;;;;;;4973341;28;46521;-82
2022/12/28 06:25:38;;;;;;;7.10;5.20;;;4.50;69.90;;;;;;4969509;28;46353;-82
2022/12/28 06:28:04;;;;;;;8.20;4.07;;;4.50;69.80;;;;;;4972596;28;46912;-83
2022/12/28 06:30:29;;;;;;;3.10;2.30;;;4.50;69.70;;;;;;4969298;28;48348;-81
2022/12/28 06:32:56;;;;;;;3.70;1.83;;;4.60;69.70;;;;;;4972155;28;45754;-82
2022/12/28 06:35:21;;;;;;;3.00;1.73;;;4.60;69.70;;;;;;4971822;28;46599;-83
2022/12/28 06:37:47;;;;;;;4.30;2.57;;;4.60;69.60;;;;;;4977423;28;47369;-85
2022/12/28 06:40:13;;;;;;;3.97;2.47;;;4.60;69.50;;;;;;4973323;28;46369;-82
2022/12/28 06:42:39;;;;;;;5.50;3.33;;;4.60;69.40;;;;;;4973402;28;46486;-83
2022/12/28 06:45:05;;;;;;;10.40;4.17;;;4.60;69.40;;;;;;4974883;28;46462;-85
2022/12/28 06:47:32;;;;;;;5.97;3.40;;;4.60;69.40;;;;;;4975167;28;46512;-81
2022/12/28 06:49:58;;;;;;;6.50;3.00;;;4.60;69.50;;;;;;4971079;28;46415;-81
2022/12/28 06:52:23;;;;;;;5.93;2.70;;;4.60;69.60;;;;;;4970991;28;45857;-83
2022/12/28 06:54:49;;;;;;;4.57;2.13;;;4.60;69.90;;;;;;4973858;28;46425;-83
2022/12/28 06:57:14;;;;;;;4.80;2.93;;;4.60;70.00;;;;;;4973551;28;46452;-83
2022/12/28 06:59:40;;;;;;;7.33;4.10;;;4.60;69.90;;;;;;4973261;28;46492;-82
2022/12/28 07:02:05;;;;;;;2.73;1.90;;;4.60;69.80;;;;;;4970441;28;46386;-82
2022/12/28 07:04:31;;;;;;;2.20;1.70;;;4.60;69.80;;;;;;4977120;28;46347;-82
2022/12/28 07:06:57;;;;;;;1.80;1.30;;;4.70;69.70;;;;;;4978534;28;46413;-84
2022/12/28 07:09:22;;;;;;;2.60;1.70;;;4.70;69.50;;;;;;4972617;28;48699;-82
2022/12/28 07:11:51;;;;;;;3.30;1.40;;;4.70;69.40;;;;;;4978152;28;46390;-82
2022/12/28 07:14:17;;;;;;;3.63;1.63;;;4.80;69.20;;;;;;4972635;28;46417;-82
2022/12/28 07:16:43;;;;;;;1.67;1.30;;;4.80;69.10;;;;;;4971492;28;45902;-83
2022/12/28 07:19:09;;;;;;;2.80;1.37;;;4.80;69.10;;;;;;4987625;28;48515;-82
2022/12/28 07:21:37;;;;;;;2.57;1.50;;;4.90;69.10;;;;;;4972512;28;46526;-83
2022/12/28 07:24:03;;;;;;;3.07;1.40;;;5.00;68.80;;;;;;4983344;28;46255;-84
2022/12/28 07:26:31;;;;;;;4.87;1.97;;;5.00;68.70;;;;;;4969708;28;46397;-83
2022/12/28 07:28:59;;;;;;;3.30;1.80;;;5.10;68.50;;;;;;4969776;28;46333;-83
2022/12/28 07:31:30;;;;;;;2.73;1.67;;;5.10;68.40;;;;;;4971866;28;46481;-83
2022/12/28 07:33:58;;;;;;;2.77;1.87;;;5.00;68.30;;;;;;4971184;28;46540;-83
2022/12/28 07:36:26;;;;;;;5.10;3.10;;;5.00;68.60;;;;;;4970540;28;46608;-83
2022/12/28 07:38:52;;;;;;;4.77;2.60;;;5.10;68.40;;;;;;4971014;28;46638;-81
2022/12/28 07:41:20;;;;;;;3.87;2.30;;;5.20;68.40;;;;;;4970882;28;46143;-81
2022/12/28 07:43:46;;;;;;;19.43;4.27;;;5.20;68.30;;;;;;4984631;28;47101;-84
2022/12/28 07:46:15;;;;;;;7.67;4.07;;;5.20;68.30;;;;;;4972849;28;45923;-82
2022/12/28 07:48:41;;;;;;;8.80;5.60;;;5.30;68.30;;;;;;4970176;28;48039;-81
2022/12/28 07:51:24;;;;;;;7.60;5.00;;;5.30;68.20;;;;;;4973360;28;46343;-80
2022/12/28 07:53:51;;;;;;;4.93;3.40;;;5.30;68.20;;;;;;4973250;28;46482;-80
2022/12/28 07:56:17;;;;;;;6.10;3.30;;;5.30;68.20;;;;;;4972216;28;46786;-82
2022/12/28 07:58:48;;;;;;;7.60;2.00;;;5.40;68.20;;;;;;4971700;28;47948;-81
2022/12/28 08:01:16;;;;;;;4.73;2.40;;;5.40;68.30;;;;;;4969538;28;46423;-80
2022/12/28 08:03:42;;;;;;;4.43;2.20;;;5.40;68.20;;;;;;4967291;28;46012;-82
2022/12/28 08:06:19;;;;;;;4.30;2.70;;;5.50;68.10;;;;;;4973681;28;46500;-81
2022/12/28 08:08:47;;;;;;;7.40;3.50;;;5.60;67.80;;;;;;4973847;28;46517;-80
2022/12/28 08:11:20;;;;;;;4.57;2.87;;;5.60;67.60;;;;;;4974587;28;46425;-81
2022/12/28 08:13:47;;;;;;;3.40;2.20;;;5.70;67.30;;;;;;4974494;28;46456;-81
2022/12/28 08:16:17;;;;;;;2.53;1.50;;;5.70;67.40;;;;;;4977561;28;46401;-81
2022/12/28 08:18:42;;;;;;;4.87;2.00;;;5.70;67.00;;;;;;4971504;28;48434;-81
2022/12/28 08:21:21;;;;;;;4.43;2.10;;;5.70;67.10;;;;;;4973637;28;46664;-83
2022/12/28 08:23:47;;;;;;;3.30;1.53;;;5.70;67.00;;;;;;4980336;28;46383;-83
2022/12/28 08:26:22;;;;;;;3.73;1.73;;;5.80;67.10;;;;;;4979995;28;46542;-85
2022/12/28 08:28:49;;;;;;;4.93;2.10;;;5.80;67.00;;;;;;4977764;28;46248;-81
2022/12/28 08:31:18;;;;;;;3.90;1.87;;;5.80;67.00;;;;;;4977741;28;46412;-85
2022/12/28 08:33:45;;;;;;;2.97;2.17;;;5.90;66.90;;;;;;4982883;28;46526;-84
2022/12/28 08:36:11;;;;;;;3.63;2.10;;;5.90;66.50;;;;;;4990221;28;46008;-84
2022/12/28 08:38:38;;;;;;;3.37;2.00;;;6.00;66.40;;;;;;4977145;28;46704;-84
2022/12/28 08:41:06;;;;;;;4.53;1.67;;;6.10;66.30;;;;;;4985015;28;46580;-83
2022/12/28 08:43:32;;;;;;;7.40;4.70;;;6.20;66.10;;;;;;4978200;28;46405;-84
2022/12/28 08:46:00;;;;;;;3.30;2.10;;;6.30;66.00;;;;;;4976867;28;46797;-83
2022/12/28 08:48:26;;;;;;;3.90;2.40;;;6.30;65.50;;;;;;4982563;28;48385;-84
2022/12/28 08:50:53;;;;;;;4.37;1.90;;;6.50;65.40;;;;;;4974459;28;46333;-84
2022/12/28 08:53:20;;;;;;;2.40;1.80;;;6.60;65.20;;;;;;4975716;28;45773;-84
2022/12/28 08:55:46;;;;;;;2.63;1.43;;;6.70;64.70;;;;;;4974807;28;46549;-84
2022/12/28 08:58:12;;;;;;;3.20;1.67;;;6.70;64.60;;;;;;4975266;28;46388;-84
2022/12/28 09:00:37;;;;;;;4.10;1.77;;;6.80;64.70;;;;;;4973311;28;46927;-83
2022/12/28 09:03:03;;;;;;;4.80;1.90;;;6.80;64.60;;;;;;4977705;28;46342;-82
2022/12/28 09:05:28;;;;;;;3.30;1.73;;;6.80;64.60;;;;;;4976708;28;46558;-81
2022/12/28 09:07:54;;;;;;;4.63;2.00;;;6.90;64.40;;;;;;4975766;28;47553;-82
2022/12/28 09:10:19;;;;;;;3.13;1.53;;;7.00;64.20;;;;;;4973989;28;46494;-82
2022/12/28 09:12:45;;;;;;;3.70;1.57;;;7.10;63.70;;;;;;4972103;28;46380;-81
2022/12/28 09:15:10;;;;;;;6.47;1.50;;;7.30;63.10;;;;;;4974537;28;46571;-85
2022/12/28 09:17:36;;;;;;;2.53;1.37;;;7.40;63.20;;;;;;4975981;28;47220;-81
2022/12/28 09:20:02;;;;;;;7.00;2.20;;;7.40;63.20;;;;;;4974617;28;46920;-82
2022/12/28 09:22:29;;;;;;;3.90;2.00;;;7.50;63.20;;;;;;4973528;28;46457;-81
2022/12/28 09:24:55;;;;;;;8.07;2.17;;;7.60;63.30;;;;;;4969855;28;46564;-81
2022/12/28 09:27:20;;;;;;;5.10;2.37;;;7.80;62.90;;;;;;4973200;28;46696;-81
2022/12/28 09:29:46;;;;;;;8.40;3.90;;;7.90;62.20;;;;;;4970999;28;46426;-80
2022/12/28 09:32:12;;;;;;;4.10;2.10;;;8.10;62.20;;;;;;4974184;28;47198;-79
2022/12/28 09:34:38;;;;;;;8.87;3.73;;;8.20;61.70;;;;;;4971593;28;46963;-79
2022/12/28 09:37:04;;;;;;;4.07;1.50;;;8.30;61.50;;;;;;4971007;28;46188;-79
2022/12/28 09:39:30;;;;;;;4.43;1.20;;;8.40;60.90;;;;;;4974132;28;46684;-79
2022/12/28 09:41:58;;;;;;;3.60;1.27;;;8.40;60.70;;;;;;4972622;28;46573;-79
2022/12/28 09:44:24;;;;;;;2.30;1.37;;;8.50;60.30;;;;;;4971448;28;46539;-80
2022/12/28 09:46:59;;;;;;;9.87;3.90;;;8.50;60.70;;;;;;4971996;28;47501;-79
2022/12/28 09:49:37;;;;;;;5.20;1.57;;;8.50;60.10;;;;;;4976800;28;46349;-80
2022/12/28 09:52:29;;;;;;;21.20;10.07;;;8.50;60.20;;;;;;4973319;28;45820;-81
2022/12/28 09:55:02;;;;;;;2.60;1.40;;;8.50;60.40;;;;;;4972410;28;47372;-78
2022/12/28 09:57:35;;;;;;;4.13;1.20;;;8.50;60.30;;;;;;4971781;28;46500;-79
2022/12/28 10:00:01;;;;;;;1.87;0.97;;;8.50;60.30;;;;;;4970626;28;46459;-79
2022/12/28 10:02:33;;;;;;;3.30;1.13;;;8.50;60.10;;;;;;4975212;28;45796;-79
2022/12/28 10:04:59;;;;;;;2.20;0.90;;;8.60;60.20;;;;;;4973733;28;47065;-79
2022/12/28 10:07:25;;;;;;;2.03;1.03;;;8.50;60.20;;;;;;4974491;28;46504;-80
2022/12/28 10:09:51;;;;;;;2.50;1.30;;;8.60;61.40;;;;;;4970785;28;46503;-81
2022/12/28 10:12:19;;;;;;;2.87;1.07;;;8.50;60.00;;;;;;4972883;28;46492;-82
2022/12/28 10:14:46;;;;;;;2.70;1.07;;;8.50;59.80;;;;;;4974761;28;47156;-80
2022/12/28 10:17:14;;;;;;;1.70;0.70;;;8.50;59.60;;;;;;4972197;28;46923;-81
2022/12/28 10:19:39;;;;;;;2.27;0.90;;;8.50;59.50;;;;;;4971556;28;46649;-81
2022/12/28 10:22:09;;;;;;;3.50;1.10;;;8.50;59.30;;;;;;4971508;28;46401;-80
2022/12/28 10:24:36;;;;;;;3.47;1.33;;;8.70;59.30;;;;;;4973009;28;46807;-80
2022/12/28 10:27:05;;;;;;;8.30;3.50;;;8.50;59.10;;;;;;4970721;28;46426;-80
2022/12/28 10:29:32;;;;;;;6.73;3.57;;;8.50;58.80;;;;;;4970015;28;46418;-81
2022/12/28 10:32:08;;;;;;;5.13;2.80;;;8.40;58.80;;;;;;4977988;28;46447;-78
2022/12/28 10:34:35;;;;;;;2.90;1.67;;;8.40;58.80;;;;;;4964994;28;46217;-80
2022/12/28 10:37:07;;;;;;;6.27;1.17;;;8.30;59.10;;;;;;4971120;28;47082;-79
2022/12/28 10:39:33;;;;;;;3.90;1.47;;;8.10;59.20;;;;;;4971932;28;46778;-80
2022/12/28 10:41:59;;;;;;;3.27;1.20;;;8.00;59.20;;;;;;4974157;28;46438;-80
2022/12/28 10:44:33;;;;;;;3.73;1.67;;;8.10;59.20;;;;;;4975061;28;46611;-79
2022/12/28 10:47:06;;;;;;;3.03;1.60;;;8.10;59.00;;;;;;4969325;28;46426;-80
2022/12/28 10:49:35;;;;;;;2.30;1.63;;;8.20;58.70;;;;;;4971433;28;46415;-79
2022/12/28 10:52:03;;;;;;;4.07;2.30;;;8.30;58.50;;;;;;4969864;28;46571;-80
2022/12/28 10:54:33;;;;;;;6.57;1.93;;;8.20;58.40;;;;;;4966802;28;46653;-79
2022/12/28 10:56:59;;;;;;;4.57;1.60;;;8.30;58.40;;;;;;4972401;28;46444;-79
2022/12/28 10:59:27;;;;;;;3.23;1.80;;;8.30;58.30;;;;;;4973946;28;46441;-78
2022/12/28 11:01:53;;;;;;;3.57;2.23;;;8.30;58.20;;;;;;4970384;28;46448;-81
2022/12/28 11:04:20;;;;;;;6.33;1.53;;;8.40;58.00;;;;;;4976004;28;47085;-80
2022/12/28 11:06:53;;;;;;;3.83;1.90;;;8.40;57.90;;;;;;4970210;28;46481;-81
2022/12/28 11:09:25;;;;;;;3.93;1.67;;;8.40;57.70;;;;;;4972282;28;46480;-81
2022/12/28 11:11:53;;;;;;;2.87;1.67;;;8.40;57.60;;;;;;4972846;28;46428;-81
2022/12/28 11:14:34;;;;;;;1.70;1.17;;;8.40;57.40;;;;;;4972950;28;46693;-79
2022/12/28 11:17:19;;;;;;;2.30;1.50;;;8.40;57.30;;;;;;4969764;28;46484;-80
2022/12/28 11:19:46;;;;;;;2.70;1.30;;;8.40;57.10;;;;;;4968872;28;46474;-81
2022/12/28 11:22:16;;;;;;;4.23;1.57;;;8.40;57.40;;;;;;4970757;28;46544;-80
2022/12/28 11:24:42;;;;;;;3.00;1.17;;;8.40;57.20;;;;;;4972382;28;46485;-81
2022/12/28 11:27:14;;;;;;;2.53;1.10;;;8.40;57.20;;;;;;4969648;28;48194;-80
2022/12/28 11:29:43;;;;;;;3.20;1.27;;;8.50;57.10;;;;;;4978511;28;46166;-82
2022/12/28 11:32:20;;;;;;;2.67;1.77;;;8.50;56.90;;;;;;4977835;28;46679;-82
2022/12/28 11:34:46;;;;;;;3.80;2.23;;;8.60;56.20;;;;;;4971117;28;46390;-81
2022/12/28 11:37:13;;;;;;;2.40;1.30;;;8.60;55.90;;;;;;4971144;28;47000;-81
2022/12/28 11:39:46;;;;;;;4.53;1.10;;;8.60;55.90;;;;;;4970192;28;46536;-82
2022/12/28 11:42:35;;;;;;;1.83;1.10;;;8.60;55.90;;;;;;4970467;28;46424;-83
2022/12/28 11:45:15;;;;;;;3.00;1.30;;;8.70;55.80;;;;;;4969134;28;47122;-82
2022/12/28 11:47:41;;;;;;;4.60;1.30;;;8.80;56.00;;;;;;4970494;28;46820;-81
2022/12/28 11:50:41;;;;;;;2.70;1.00;;;8.80;55.60;;;;;;4970822;28;46405;-82
2022/12/28 11:53:22;;;;;;;4.60;1.00;;;8.90;55.10;;;;;;4977013;28;46567;-80
2022/12/28 11:55:58;;;;;;;4.17;1.33;;;9.00;55.10;;;;;;4973686;28;46842;-80
2022/12/28 11:58:30;;;;;;;1.63;0.97;;;9.10;55.00;;;;;;4968764;28;48122;-81
2022/12/28 12:00:58;;;;;;;3.50;1.33;;;9.20;54.80;;;;;;4977102;28;46547;-80
2022/12/28 12:04:02;;;;;;;5.13;0.80;;;9.30;54.50;;;;;;4970508;28;46438;-79
2022/12/28 12:06:40;;;;;;;7.40;1.10;;;9.40;53.90;;;;;;4969449;28;46058;-80
2022/12/28 12:09:28;;;;;;;1.90;0.80;;;9.50;53.90;;;;;;4968225;28;48250;-82
2022/12/28 12:11:59;;;;;;;2.50;1.00;;;9.70;53.60;;;;;;4976482;28;46414;-85
2022/12/28 12:14:38;;;;;;;3.87;1.40;;;9.90;53.20;;;;;;4971994;28;46448;-80
2022/12/28 12:17:35;;;;;;;4.80;1.30;;;10.00;51.60;;;;;;4973027;28;46560;-83
2022/12/28 12:20:19;;;;;;;7.73;0.90;;;10.20;51.80;;;;;;4970423;28;46494;-81
2022/12/28 12:22:51;;;;;;;3.10;1.30;;;10.20;51.80;;;;;;4970517;28;45789;-81
2022/12/28 12:25:25;;;;;;;2.53;1.10;;;10.30;51.90;;;;;;4983983;28;46592;-80
2022/12/28 12:27:58;;;;;;;1.47;0.90;;;10.30;51.90;;;;;;4972164;28;46363;-82
2022/12/28 12:30:24;;;;;;;3.07;1.00;;;10.40;52.00;;;;;;4968370;28;48620;-82
2022/12/28 12:32:59;;;;;;;3.23;1.20;;;10.70;52.30;;;;;;4974925;28;46425;-81
2022/12/28 12:35:29;;;;;;;2.70;1.13;;;10.70;51.90;;;;;;4971604;28;46417;-79
2022/12/28 12:38:27;;;;;;;2.03;1.00;;;10.70;51.60;;;;;;4970961;28;46478;-82
2022/12/28 12:41:21;;;;;;;3.50;1.20;;;10.80;51.40;;;;;;4971227;28;46559;-82
2022/12/28 12:44:17;;;;;;;2.33;0.97;;;10.80;50.70;;;;;;4985443;28;46163;-81
2022/12/28 12:47:04;;;;;;;4.27;1.20;;;10.80;50.70;;;;;;4972997;28;46968;-79
2022/12/28 12:49:42;;;;;;;2.07;0.83;;;10.70;50.90;;;;;;4971504;28;46506;-82
2022/12/28 12:52:41;;;;;;;3.77;0.83;;;10.50;51.10;;;;;;4973999;28;47385;-80
2022/12/28 12:55:35;;;;;;;4.10;1.17;;;10.30;51.10;;;;;;4983170;28;46398;-83
2022/12/28 12:58:23;;;;;;;2.77;1.00;;;10.30;51.80;;;;;;4972416;28;46477;-81
2022/12/28 13:01:16;;;;;;;6.63;0.93;;;10.30;51.60;;;;;;4972526;28;46507;-81
2022/12/28 13:03:47;;;;;;;2.47;1.20;;;10.40;51.10;;;;;;4973467;28;46643;-80
2022/12/28 13:06:18;;;;;;;2.10;0.93;;;10.50;50.60;;;;;;4973337;28;46546;-82
2022/12/28 13:08:51;;;;;;;3.73;1.03;;;10.60;50.20;;;;;;4972369;28;46641;-80
2022/12/28 13:11:18;;;;;;;4.20;0.93;;;10.60;49.70;;;;;;4986047;28;46503;-80
2022/12/28 13:13:47;;;;;;;2.00;0.90;;;10.60;48.30;;;;;;4970310;28;46737;-80
2022/12/28 13:16:18;;;;;;;1.70;0.90;;;10.60;49.40;;;;;;4972347;28;46485;-80
2022/12/28 13:19:02;;;;;;;2.20;0.80;;;10.50;49.20;;;;;;4974584;28;46441;-79
2022/12/28 13:21:43;;;;;;;2.10;0.70;;;10.50;48.80;;;;;;4971642;28;46377;-80
2022/12/28 13:24:24;;;;;;;3.13;0.90;;;10.40;48.80;;;;;;4970904;28;47219;-82
2022/12/28 13:26:50;;;;;;;3.90;1.07;;;10.40;48.90;;;;;;4971106;28;46520;-81
2022/12/28 13:29:30;;;;;;;2.10;0.90;;;10.30;49.20;;;;;;4975565;28;46496;-79
2022/12/28 13:31:55;;;;;;;3.30;0.73;;;10.40;48.90;;;;;;4972709;28;46686;-79
2022/12/28 13:34:26;;;;;;;2.47;1.13;;;10.40;48.90;;;;;;4970926;28;46575;-79
2022/12/28 13:36:57;;;;;;;5.43;1.20;;;10.50;48.80;;;;;;4973748;28;46479;-79